EDDS/STR METAR and TAF weather

Enter ICAO airport designator
Station Type Date Time Source
EDDS METAR 2022/06/30 14:20 UTC NOAA

EDDS 301420Z AUTO VRB02KT CAVOK 29/16 Q1010 NOSIG


Station Type Date Time Source
EDDS Decoded METAR 2022/06/30 14:20 UTC NOAA

Stuttgart-Echterdingen, Germany (EDDS) 48-41N 009-13E 391M
Jun 30, 2022 - 10:20 AM EDT / 2022.06.30 1420 UTC
Wind: Variable at 2 MPH (2 KT):0
Visibility: greater than 7 mile(s):0
Temperature: 84 F (29 C)
Dew Point: 60 F (16 C)
Relative Humidity: 45%
Pressure (altimeter): 29.83 in. Hg (1010 hPa)
ob: EDDS 301420Z AUTO VRB02KT CAVOK 29/16 Q1010 NOSIG
cycle: 14

Station Type Date Time Source
EDDS TAF 2022/06/30 12:27 UTC NOAA

TAF EDDS 301100Z 3012/0112 11004KT CAVOK
BECMG 3014/3017 21008KT PROB30
TEMPO 3016/3021 28020G40KT 1000 +TSRA BKN009 BKN040CB
BECMG 3019/3021 29008KT PROB40
TEMPO 3021/0111 28015G30KT TSRA BKN040CB
TEMPO 0103/0108 BKN009

Example: see airport list